Amesbury, MA

2:32 AM EDT on May 26, 2015 (GMT -0400)
So Hampton Rd | | Change Station
CLOSE
Current Station
Personal Weather Station
Location: Amesbury, MA
Elevation: 85 ft
Nearby Weather Stations

Elev 85 ft 42.87 °N, 70.93 °W | Updated 8 minutes ago

Overcast
Overcast
68.2 °F
Feels Like 68.2 °F
N
0.0
Wind Variable Wind from ENE

Today
High -- | Low -- °F
--% Chance of Precip.
Yesterday
High -- | Low -- °F
Precip. -- in
5:11 AM 8:10 PM
First Quarter, 55% visible
Pressure 30.12 in
Visibility 10.0 miles
Clouds Scattered Clouds 11000 ft
Dew Point 58 °F
Humidity 69%
Rainfall 0.00 in
Snow Depth Not available.
UV 0 out of 12
Pollen 9.50 out of 12
Air Quality Not available.
Flu Activity Local Activity
METAR KLWM 260554Z AUTO 21007KT 10SM SCT110 20/14 A3013 RMK AO2 RAE06 SLP200 P0000 60000 T02000144 10239 20200 58007

More Conditions Fewer Conditions

Pressure 30.12 in
Visibility 10.0 miles
Clouds Scattered Clouds 11000 ft
Dew Point 58 °F
Humidity 69%
Rainfall 0.00 in
Snow Depth Not available.
UV 0 out of 12
Pollen 9.50 out of 12
Air Quality Not available.
Flu Activity Local Activity
METAR KLWM 260554Z AUTO 21007KT 10SM SCT110 20/14 A3013 RMK AO2 RAE06 SLP200 P0000 60000 T02000144 10239 20200 58007

More Conditions Fewer Conditions

10-Day Weather Forecast

Almanac

Astronomy

May. 26, 2015 Rise Set
Actual Time
Civil Twilight
Nautical Twilight
Astronomical Twilight
Moon
Length of Visible Light
Length of Day
Tomorrow will be .
, % of the Moon is Illuminated

Today's Extremes

State Highs State Lows

Community

WunderPhotos

Upload Photos

1,824,294 photos uploaded!

WunderBlogs® & News

Nearby

Air Quality

  Air Quality AQ Index Pollutant
Not available.

Snow Depth

Station Depth Elevation

Earthquake Activity

City Distance Mag. Time & Date
Minimum magnitude displayed is 2.5.

Coastal Water Temperatures

Place Temperature

Stations

Nearby Weather Stations

Station Location Temp. Windchill Dew Point Humidity Wind Precip. Elev Updated Type